Unser Platzwetter:
(um das Bild zu aktualisieren oder bei unvollständig geladenem Bild den Reload-Button des Browsers drücken)

[Quelle: ADDS]
METAR
ETNN 032020Z 30004KT 9999 FEW090 BKN250 17/08 Q1001 BLU+ =
ETNN 031300Z 0314/0323 30008KT 9999 NSW FEW080 BKN120 TEMPO 0314/0323 28010KT 5000 SHRA BKN020 BKN050CB PROB30 0314/0323 VRB15G25KT 4000 TSRA BKN020 BKN040CB BY ETGL
TAF
ETNN 031300Z 0314/0323 30008KT 9999 NSW FEW080 BKN120 TEMPO 0314/0323 28010KT 5000 SHRA BKN020 BKN050CB PROB30 0314/0323 VRB15G25KT 4000 TSRA BKN020 BKN040CB BY ETGL =
SR / SS: 03:24 / 19:39 UTC (Vettweiss-Soller 2020-06-03)

In Relation zu unserer Bahn:

PPR beachten

50 44 51 N / 06 34 01 E
525 ft
14/32 Gras 360 m
136.090 MHz
02424/901444

Kontakt:

LSG Gertrundenhof e.V.
c/o Rolf Viehs
Scheffensweg 33
52393 Hürtgenwald-Gey
02429/908222
0178/8845333

in Lokalzeit:
05:22
21:41